sensor_id;sensor_type;location;lat;lon;timestamp;temperature;humidity
6052;DHT22;3054;51.204;4.430;2022-08-21T00:02:16;21.85;60.25
6052;DHT22;3054;51.204;4.430;2022-08-21T00:04:43;21.87;60.12
6052;DHT22;3054;51.204;4.430;2022-08-21T00:07:10;21.83;60.07
6052;DHT22;3054;51.204;4.430;2022-08-21T00:09:39;21.81;60.02
6052;DHT22;3054;51.204;4.430;2022-08-21T00:12:06;21.80;59.95
6052;DHT22;3054;51.204;4.430;2022-08-21T00:14:34;21.77;59.90
6052;DHT22;3054;51.204;4.430;2022-08-21T00:17:03;21.76;59.86
6052;DHT22;3054;51.204;4.430;2022-08-21T00:19:30;21.70;59.88
6052;DHT22;3054;51.204;4.430;2022-08-21T00:21:58;21.70;59.80
6052;DHT22;3054;51.204;4.430;2022-08-21T00:24:25;21.66;59.79
6052;DHT22;3054;51.204;4.430;2022-08-21T00:26:53;21.65;59.75
6052;DHT22;3054;51.204;4.430;2022-08-21T00:29:20;21.64;59.70
6052;DHT22;3054;51.204;4.430;2022-08-21T00:31:47;21.60;59.75
6052;DHT22;3054;51.204;4.430;2022-08-21T00:34:14;21.59;59.75
6052;DHT22;3054;51.204;4.430;2022-08-21T00:36:41;21.55;59.77
6052;DHT22;3054;51.204;4.430;2022-08-21T00:39:09;21.53;59.77
6052;DHT22;3054;51.204;4.430;2022-08-21T00:41:37;21.48;59.83
6052;DHT22;3054;51.204;4.430;2022-08-21T00:44:07;21.45;59.90
6052;DHT22;3054;51.204;4.430;2022-08-21T00:46:35;21.45;59.86
6052;DHT22;3054;51.204;4.430;2022-08-21T00:49:03;21.40;59.89
6052;DHT22;3054;51.204;4.430;2022-08-21T00:51:36;21.42;59.92
6052;DHT22;3054;51.204;4.430;2022-08-21T00:54:04;21.39;59.91
6052;DHT22;3054;51.204;4.430;2022-08-21T00:56:32;21.35;59.99
6052;DHT22;3054;51.204;4.430;2022-08-21T00:58:59;21.33;60.03
6052;DHT22;3054;51.204;4.430;2022-08-21T01:01:28;21.31;60.11
6052;DHT22;3054;51.204;4.430;2022-08-21T01:03:55;21.29;60.13
6052;DHT22;3054;51.204;4.430;2022-08-21T01:06:22;21.27;60.13
6052;DHT22;3054;51.204;4.430;2022-08-21T01:08:49;21.25;60.18
6052;DHT22;3054;51.204;4.430;2022-08-21T01:11:16;21.24;60.22
6052;DHT22;3054;51.204;4.430;2022-08-21T01:13:43;21.23;60.23
6052;DHT22;3054;51.204;4.430;2022-08-21T01:16:13;21.21;60.25
6052;DHT22;3054;51.204;4.430;2022-08-21T01:18:44;21.18;60.30
6052;DHT22;3054;51.204;4.430;2022-08-21T01:21:15;21.15;60.40
6052;DHT22;3054;51.204;4.430;2022-08-21T01:23:45;21.13;60.51
6052;DHT22;3054;51.204;4.430;2022-08-21T01:26:13;21.11;60.56
6052;DHT22;3054;51.204;4.430;2022-08-21T01:28:44;21.06;60.55
6052;DHT22;3054;51.204;4.430;2022-08-21T01:31:13;21.00;60.64
6052;DHT22;3054;51.204;4.430;2022-08-21T01:33:41;20.94;60.84
6052;DHT22;3054;51.204;4.430;2022-08-21T01:36:08;20.89;61.02
6052;DHT22;3054;51.204;4.430;2022-08-21T01:38:36;20.84;61.23
6052;DHT22;3054;51.204;4.430;2022-08-21T01:41:03;20.80;61.34
6052;DHT22;3054;51.204;4.430;2022-08-21T01:43:30;20.74;61.53
6052;DHT22;3054;51.204;4.430;2022-08-21T01:45:57;20.70;61.70
6052;DHT22;3054;51.204;4.430;2022-08-21T01:48:24;20.66;61.82
6052;DHT22;3054;51.204;4.430;2022-08-21T01:50:50;20.64;61.94
6052;DHT22;3054;51.204;4.430;2022-08-21T01:53:18;20.61;62.04
6052;DHT22;3054;51.204;4.430;2022-08-21T01:55:46;20.60;62.15
6052;DHT22;3054;51.204;4.430;2022-08-21T01:58:13;20.56;62.24
6052;DHT22;3054;51.204;4.430;2022-08-21T02:00:40;20.55;62.33
6052;DHT22;3054;51.204;4.430;2022-08-21T02:03:07;20.57;62.36
6052;DHT22;3054;51.204;4.430;2022-08-21T02:05:34;20.55;62.39
6052;DHT22;3054;51.204;4.430;2022-08-21T02:08:01;20.53;62.48
6052;DHT22;3054;51.204;4.430;2022-08-21T02:10:30;20.54;62.53
6052;DHT22;3054;51.204;4.430;2022-08-21T02:13:00;20.55;62.57
6052;DHT22;3054;51.204;4.430;2022-08-21T02:15:28;20.56;62.53
6052;DHT22;3054;51.204;4.430;2022-08-21T02:17:57;20.53;62.55
6052;DHT22;3054;51.204;4.430;2022-08-21T02:20:30;20.53;62.62
6052;DHT22;3054;51.204;4.430;2022-08-21T02:22:57;20.53;62.54
6052;DHT22;3054;51.204;4.430;2022-08-21T02:25:25;20.53;62.57
6052;DHT22;3054;51.204;4.430;2022-08-21T02:27:52;20.47;62.63
6052;DHT22;3054;51.204;4.430;2022-08-21T02:30:23;20.41;62.71
6052;DHT22;3054;51.204;4.430;2022-08-21T02:32:50;20.32;62.92
6052;DHT22;3054;51.204;4.430;2022-08-21T02:35:18;20.28;63.04
6052;DHT22;3054;51.204;4.430;2022-08-21T02:37:47;20.20;63.24
6052;DHT22;3054;51.204;4.430;2022-08-21T02:40:16;20.16;63.36
6052;DHT22;3054;51.204;4.430;2022-08-21T02:42:44;20.15;63.48
6052;DHT22;3054;51.204;4.430;2022-08-21T02:45:11;20.14;63.49
6052;DHT22;3054;51.204;4.430;2022-08-21T02:47:40;20.12;63.62
6052;DHT22;3054;51.204;4.430;2022-08-21T02:50:13;20.13;63.66
6052;DHT22;3054;51.204;4.430;2022-08-21T02:52:39;20.10;63.69
6052;DHT22;3054;51.204;4.430;2022-08-21T02:55:07;20.04;63.85
6052;DHT22;3054;51.204;4.430;2022-08-21T02:57:34;20.01;63.96
6052;DHT22;3054;51.204;4.430;2022-08-21T03:00:02;20.03;64.03
6052;DHT22;3054;51.204;4.430;2022-08-21T03:02:29;20.03;64.08
6052;DHT22;3054;51.204;4.430;2022-08-21T03:04:57;20.05;64.07
6052;DHT22;3054;51.204;4.430;2022-08-21T03:07:24;20.05;64.12
6052;DHT22;3054;51.204;4.430;2022-08-21T03:09:51;20.01;64.13
6052;DHT22;3054;51.204;4.430;2022-08-21T03:12:18;20.00;64.18
6052;DHT22;3054;51.204;4.430;2022-08-21T03:14:47;19.99;64.20
6052;DHT22;3054;51.204;4.430;2022-08-21T03:17:14;19.92;64.31
6052;DHT22;3054;51.204;4.430;2022-08-21T03:19:41;19.90;64.38
6052;DHT22;3054;51.204;4.430;2022-08-21T03:22:09;19.86;64.51
6052;DHT22;3054;51.204;4.430;2022-08-21T03:24:36;19.84;64.57
6052;DHT22;3054;51.204;4.430;2022-08-21T03:27:03;19.83;64.63
6052;DHT22;3054;51.204;4.430;2022-08-21T03:29:30;19.84;64.64
6052;DHT22;3054;51.204;4.430;2022-08-21T03:31:57;19.80;64.66
6052;DHT22;3054;51.204;4.430;2022-08-21T03:34:24;19.77;64.77
6052;DHT22;3054;51.204;4.430;2022-08-21T03:36:51;19.75;64.85
6052;DHT22;3054;51.204;4.430;2022-08-21T03:39:19;19.71;64.92
6052;DHT22;3054;51.204;4.430;2022-08-21T03:41:46;19.71;64.98
6052;DHT22;3054;51.204;4.430;2022-08-21T03:44:13;19.72;65.03
6052;DHT22;3054;51.204;4.430;2022-08-21T03:46:40;19.73;65.01
6052;DHT22;3054;51.204;4.430;2022-08-21T03:49:07;19.69;65.09
6052;DHT22;3054;51.204;4.430;2022-08-21T03:51:36;19.67;65.19
6052;DHT22;3054;51.204;4.430;2022-08-21T03:54:03;19.63;65.22
6052;DHT22;3054;51.204;4.430;2022-08-21T03:56:34;19.66;65.31
6052;DHT22;3054;51.204;4.430;2022-08-21T03:59:01;19.62;65.34
6052;DHT22;3054;51.204;4.430;2022-08-21T04:01:29;19.59;65.37
6052;DHT22;3054;51.204;4.430;2022-08-21T04:03:56;19.56;65.50
6052;DHT22;3054;51.204;4.430;2022-08-21T04:06:23;19.55;65.50
6052;DHT22;3054;51.204;4.430;2022-08-21T04:08:51;19.50;65.67
6052;DHT22;3054;51.204;4.430;2022-08-21T04:11:19;19.43;65.73
6052;DHT22;3054;51.204;4.430;2022-08-21T04:13:47;19.42;65.86
6052;DHT22;3054;51.204;4.430;2022-08-21T04:16:14;19.41;65.88
6052;DHT22;3054;51.204;4.430;2022-08-21T04:18:41;19.41;65.91
6052;DHT22;3054;51.204;4.430;2022-08-21T04:21:10;19.40;65.99
6052;DHT22;3054;51.204;4.430;2022-08-21T04:23:37;19.39;66.00
6052;DHT22;3054;51.204;4.430;2022-08-21T04:26:04;19.37;66.11
6052;DHT22;3054;51.204;4.430;2022-08-21T04:28:32;19.35;66.16
6052;DHT22;3054;51.204;4.430;2022-08-21T04:31:00;19.33;66.24
6052;DHT22;3054;51.204;4.430;2022-08-21T04:33:27;19.29;66.30
6052;DHT22;3054;51.204;4.430;2022-08-21T04:35:54;19.26;66.37
6052;DHT22;3054;51.204;4.430;2022-08-21T04:38:21;19.24;66.47
6052;DHT22;3054;51.204;4.430;2022-08-21T04:40:49;19.18;66.58
6052;DHT22;3054;51.204;4.430;2022-08-21T04:43:16;19.20;66.62
6052;DHT22;3054;51.204;4.430;2022-08-21T04:45:45;19.14;66.72
6052;DHT22;3054;51.204;4.430;2022-08-21T04:48:17;19.15;66.77
6052;DHT22;3054;51.204;4.430;2022-08-21T04:50:49;19.18;66.79
6052;DHT22;3054;51.204;4.430;2022-08-21T04:53:18;19.22;66.78
6052;DHT22;3054;51.204;4.430;2022-08-21T04:55:47;19.28;66.72
6052;DHT22;3054;51.204;4.430;2022-08-21T04:58:18;19.27;66.77
6052;DHT22;3054;51.204;4.430;2022-08-21T05:00:46;19.26;66.79
6052;DHT22;3054;51.204;4.430;2022-08-21T05:03:17;19.23;66.89
6052;DHT22;3054;51.204;4.430;2022-08-21T05:05:44;19.26;66.88
6052;DHT22;3054;51.204;4.430;2022-08-21T05:08:12;19.24;66.91
6052;DHT22;3054;51.204;4.430;2022-08-21T05:10:41;19.25;66.98
6052;DHT22;3054;51.204;4.430;2022-08-21T05:13:10;19.26;66.96
6052;DHT22;3054;51.204;4.430;2022-08-21T05:15:38;19.27;67.10
6052;DHT22;3054;51.204;4.430;2022-08-21T05:18:05;19.30;67.07
6052;DHT22;3054;51.204;4.430;2022-08-21T05:20:34;19.29;67.09
6052;DHT22;3054;51.204;4.430;2022-08-21T05:23:06;19.29;67.18
6052;DHT22;3054;51.204;4.430;2022-08-21T05:25:34;19.28;67.27
6052;DHT22;3054;51.204;4.430;2022-08-21T05:28:01;19.27;67.31
6052;DHT22;3054;51.204;4.430;2022-08-21T05:30:28;19.31;67.40
6052;DHT22;3054;51.204;4.430;2022-08-21T05:32:57;19.36;67.47
6052;DHT22;3054;51.204;4.430;2022-08-21T05:35:24;19.40;67.36
6052;DHT22;3054;51.204;4.430;2022-08-21T05:37:53;19.43;67.41
6052;DHT22;3054;51.204;4.430;2022-08-21T05:40:21;19.47;67.49
6052;DHT22;3054;51.204;4.430;2022-08-21T05:42:48;19.54;67.43
6052;DHT22;3054;51.204;4.430;2022-08-21T05:45:15;19.58;67.36
6052;DHT22;3054;51.204;4.430;2022-08-21T05:47:42;19.61;67.40
6052;DHT22;3054;51.204;4.430;2022-08-21T05:50:09;19.71;67.40
6052;DHT22;3054;51.204;4.430;2022-08-21T05:52:36;19.76;67.27
6052;DHT22;3054;51.204;4.430;2022-08-21T05:55:05;19.87;67.16
6052;DHT22;3054;51.204;4.430;2022-08-21T05:57:32;19.94;67.09
6052;DHT22;3054;51.204;4.430;2022-08-21T05:59:59;20.09;66.91
6052;DHT22;3054;51.204;4.430;2022-08-21T06:02:25;20.24;66.68
6052;DHT22;3054;51.204;4.430;2022-08-21T06:04:52;20.39;66.46
6052;DHT22;3054;51.204;4.430;2022-08-21T06:07:19;20.55;66.16
6052;DHT22;3054;51.204;4.430;2022-08-21T06:09:46;20.70;65.98
6052;DHT22;3054;51.204;4.430;2022-08-21T06:12:14;20.84;65.72
6052;DHT22;3054;51.204;4.430;2022-08-21T06:14:42;20.95;65.59
6052;DHT22;3054;51.204;4.430;2022-08-21T06:17:10;21.10;65.36
6052;DHT22;3054;51.204;4.430;2022-08-21T06:19:38;21.24;65.10
6052;DHT22;3054;51.204;4.430;2022-08-21T06:22:05;21.36;64.89
6052;DHT22;3054;51.204;4.430;2022-08-21T06:24:32;21.45;64.76
6052;DHT22;3054;51.204;4.430;2022-08-21T06:27:04;21.54;64.65
6052;DHT22;3054;51.204;4.430;2022-08-21T06:29:33;21.68;64.37
6052;DHT22;3054;51.204;4.430;2022-08-21T06:32:00;21.79;64.11
6052;DHT22;3054;51.204;4.430;2022-08-21T06:34:27;21.92;63.89
6052;DHT22;3054;51.204;4.430;2022-08-21T06:36:54;22.06;63.71
6052;DHT22;3054;51.204;4.430;2022-08-21T06:39:21;22.19;63.54
6052;DHT22;3054;51.204;4.430;2022-08-21T06:41:48;22.32;63.30
6052;DHT22;3054;51.204;4.430;2022-08-21T06:44:16;22.42;63.08
6052;DHT22;3054;51.204;4.430;2022-08-21T06:46:44;22.47;62.87
6052;DHT22;3054;51.204;4.430;2022-08-21T06:49:11;22.53;62.86
6052;DHT22;3054;51.204;4.430;2022-08-21T06:51:38;22.65;62.63
6052;DHT22;3054;51.204;4.430;2022-08-21T06:54:05;22.75;62.49
6052;DHT22;3054;51.204;4.430;2022-08-21T06:56:32;22.78;62.52
6052;DHT22;3054;51.204;4.430;2022-08-21T06:59:00;22.84;62.39
6052;DHT22;3054;51.204;4.430;2022-08-21T07:01:27;22.92;62.08
6052;DHT22;3054;51.204;4.430;2022-08-21T07:03:56;22.99;61.94
6052;DHT22;3054;51.204;4.430;2022-08-21T07:06:22;23.08;61.70
6052;DHT22;3054;51.204;4.430;2022-08-21T07:08:50;23.15;61.48
6052;DHT22;3054;51.204;4.430;2022-08-21T07:11:19;23.20;61.39
6052;DHT22;3054;51.204;4.430;2022-08-21T07:13:47;23.36;61.15
6052;DHT22;3054;51.204;4.430;2022-08-21T07:16:14;23.45;60.89
6052;DHT22;3054;51.204;4.430;2022-08-21T07:18:41;23.52;60.70
6052;DHT22;3054;51.204;4.430;2022-08-21T07:21:09;23.61;60.46
6052;DHT22;3054;51.204;4.430;2022-08-21T07:23:38;23.76;60.22
6052;DHT22;3054;51.204;4.430;2022-08-21T07:26:06;23.83;60.07
6052;DHT22;3054;51.204;4.430;2022-08-21T07:28:35;23.84;60.02
6052;DHT22;3054;51.204;4.430;2022-08-21T07:31:03;23.91;59.89
6052;DHT22;3054;51.204;4.430;2022-08-21T07:33:32;23.98;59.79
6052;DHT22;3054;51.204;4.430;2022-08-21T07:36:00;24.04;59.65
6052;DHT22;3054;51.204;4.430;2022-08-21T07:38:28;24.09;59.64
6052;DHT22;3054;51.204;4.430;2022-08-21T07:40:56;24.26;59.48
6052;DHT22;3054;51.204;4.430;2022-08-21T07:43:25;24.41;59.11
6052;DHT22;3054;51.204;4.430;2022-08-21T07:45:52;24.57;58.79
6052;DHT22;3054;51.204;4.430;2022-08-21T07:48:20;24.74;58.51
6052;DHT22;3054;51.204;4.430;2022-08-21T07:50:47;24.86;58.17
6052;DHT22;3054;51.204;4.430;2022-08-21T07:53:14;24.93;57.94
6052;DHT22;3054;51.204;4.430;2022-08-21T07:55:43;24.91;57.84
6052;DHT22;3054;51.204;4.430;2022-08-21T07:58:10;24.84;57.92
6052;DHT22;3054;51.204;4.430;2022-08-21T08:00:37;24.93;57.76
6052;DHT22;3054;51.204;4.430;2022-08-21T08:03:03;24.94;57.55
6052;DHT22;3054;51.204;4.430;2022-08-21T08:05:31;24.99;57.35
6052;DHT22;3054;51.204;4.430;2022-08-21T08:07:58;25.07;57.15
6052;DHT22;3054;51.204;4.430;2022-08-21T08:10:25;25.24;56.88
6052;DHT22;3054;51.204;4.430;2022-08-21T08:12:54;25.38;56.48
6052;DHT22;3054;51.204;4.430;2022-08-21T08:15:23;25.50;56.28
6052;DHT22;3054;51.204;4.430;2022-08-21T08:17:50;25.69;55.90
6052;DHT22;3054;51.204;4.430;2022-08-21T08:20:18;25.84;55.50
6052;DHT22;3054;51.204;4.430;2022-08-21T08:22:45;25.94;55.32
6052;DHT22;3054;51.204;4.430;2022-08-21T08:25:14;26.17;54.91
6052;DHT22;3054;51.204;4.430;2022-08-21T08:27:42;26.33;54.42
6052;DHT22;3054;51.204;4.430;2022-08-21T08:30:14;26.34;54.15
6052;DHT22;3054;51.204;4.430;2022-08-21T08:32:41;26.49;53.94
6052;DHT22;3054;51.204;4.430;2022-08-21T08:35:09;26.70;53.51
6052;DHT22;3054;51.204;4.430;2022-08-21T08:37:36;27.05;52.82
6052;DHT22;3054;51.204;4.430;2022-08-21T08:40:06;27.37;52.23
6052;DHT22;3054;51.204;4.430;2022-08-21T08:42:35;27.86;51.30
6052;DHT22;3054;51.204;4.430;2022-08-21T08:45:04;28.39;50.12
6052;DHT22;3054;51.204;4.430;2022-08-21T08:47:36;29.01;48.92
6052;DHT22;3054;51.204;4.430;2022-08-21T08:50:07;29.70;47.65
6052;DHT22;3054;51.204;4.430;2022-08-21T08:52:40;30.74;45.91
6052;DHT22;3054;51.204;4.430;2022-08-21T08:55:13;31.56;44.27
6052;DHT22;3054;51.204;4.430;2022-08-21T08:57:44;32.62;42.58
6052;DHT22;3054;51.204;4.430;2022-08-21T09:00:14;33.97;40.33
6052;DHT22;3054;51.204;4.430;2022-08-21T09:02:44;35.05;38.45
6052;DHT22;3054;51.204;4.430;2022-08-21T09:05:20;36.58;36.56
6052;DHT22;3054;51.204;4.430;2022-08-21T09:07:58;37.85;34.19
6052;DHT22;3054;51.204;4.430;2022-08-21T09:10:39;36.68;35.36
6052;DHT22;3054;51.204;4.430;2022-08-21T09:13:14;36.64;35.37
6052;DHT22;3054;51.204;4.430;2022-08-21T09:15:53;38.07;32.50
6052;DHT22;3054;51.204;4.430;2022-08-21T09:18:37;35.44;35.07
6052;DHT22;3054;51.204;4.430;2022-08-21T09:21:14;35.28;37.05
6052;DHT22;3054;51.204;4.430;2022-08-21T09:23:50;39.74;31.65
6052;DHT22;3054;51.204;4.430;2022-08-21T09:26:20;41.30;27.86
6052;DHT22;3054;51.204;4.430;2022-08-21T09:28:53;43.40;27.07
6052;DHT22;3054;51.204;4.430;2022-08-21T09:31:23;44.33;25.39
6052;DHT22;3054;51.204;4.430;2022-08-21T09:33:59;43.90;24.75
6052;DHT22;3054;51.204;4.430;2022-08-21T09:36:33;43.48;24.98
6052;DHT22;3054;51.204;4.430;2022-08-21T09:39:01;42.84;23.82
6052;DHT22;3054;51.204;4.430;2022-08-21T09:41:29;40.76;26.06
6052;DHT22;3054;51.204;4.430;2022-08-21T09:43:57;39.30;28.12
6052;DHT22;3054;51.204;4.430;2022-08-21T09:46:26;38.00;29.85
6052;DHT22;3054;51.204;4.430;2022-08-21T09:48:55;38.64;28.65
6052;DHT22;3054;51.204;4.430;2022-08-21T09:51:25;39.23;26.94
6052;DHT22;3054;51.204;4.430;2022-08-21T09:53:56;39.93;27.81
6052;DHT22;3054;51.204;4.430;2022-08-21T09:56:31;39.85;25.99
6052;DHT22;3054;51.204;4.430;2022-08-21T09:59:19;37.93;28.86
6052;DHT22;3054;51.204;4.430;2022-08-21T10:01:49;36.27;30.37
6052;DHT22;3054;51.204;4.430;2022-08-21T10:04:20;34.77;32.16
6052;DHT22;3054;51.204;4.430;2022-08-21T10:06:49;33.85;33.47
6052;DHT22;3054;51.204;4.430;2022-08-21T10:09:19;33.00;34.57
6052;DHT22;3054;51.204;4.430;2022-08-21T10:11:55;32.97;34.89
6052;DHT22;3054;51.204;4.430;2022-08-21T10:14:39;35.15;34.06
6052;DHT22;3054;51.204;4.430;2022-08-21T10:17:16;38.89;27.16
6052;DHT22;3054;51.204;4.430;2022-08-21T10:19:51;41.88;25.50
6052;DHT22;3054;51.204;4.430;2022-08-21T10:22:32;45.21;23.12
6052;DHT22;3054;51.204;4.430;2022-08-21T10:25:09;46.23;22.30
6052;DHT22;3054;51.204;4.430;2022-08-21T10:27:46;48.22;19.15
6052;DHT22;3054;51.204;4.430;2022-08-21T10:30:16;48.27;20.12
6052;DHT22;3054;51.204;4.430;2022-08-21T10:32:56;48.00;19.81
6052;DHT22;3054;51.204;4.430;2022-08-21T10:35:29;43.88;21.30
6052;DHT22;3054;51.204;4.430;2022-08-21T10:41:11;40.76;24.43
6052;DHT22;3054;51.204;4.430;2022-08-21T10:43:45;39.32;26.40
6052;DHT22;3054;51.204;4.430;2022-08-21T10:46:21;39.20;26.56
6052;DHT22;3054;51.204;4.430;2022-08-21T10:48:55;39.21;25.91
6052;DHT22;3054;51.204;4.430;2022-08-21T10:51:28;38.30;27.21
6052;DHT22;3054;51.204;4.430;2022-08-21T10:54:06;38.25;26.88
6052;DHT22;3054;51.204;4.430;2022-08-21T10:56:39;36.91;28.44
6052;DHT22;3054;51.204;4.430;2022-08-21T10:59:24;36.66;29.20
6052;DHT22;3054;51.204;4.430;2022-08-21T11:01:57;36.96;28.73
6052;DHT22;3054;51.204;4.430;2022-08-21T11:04:30;36.68;28.61
6052;DHT22;3054;51.204;4.430;2022-08-21T11:07:02;35.42;30.02
6052;DHT22;3054;51.204;4.430;2022-08-21T11:09:31;34.89;30.92
6052;DHT22;3054;51.204;4.430;2022-08-21T11:12:05;35.19;30.77
6052;DHT22;3054;51.204;4.430;2022-08-21T11:14:39;35.65;30.34
6052;DHT22;3054;51.204;4.430;2022-08-21T11:17:09;35.88;30.12
6052;DHT22;3054;51.204;4.430;2022-08-21T11:19:42;35.48;30.40
6052;DHT22;3054;51.204;4.430;2022-08-21T11:22:15;35.51;30.38
6052;DHT22;3054;51.204;4.430;2022-08-21T11:24:50;35.57;30.06
6052;DHT22;3054;51.204;4.430;2022-08-21T11:27:23;34.95;30.66
6052;DHT22;3054;51.204;4.430;2022-08-21T11:29:56;34.64;31.07
6052;DHT22;3054;51.204;4.430;2022-08-21T11:35:22;34.22;31.73
6052;DHT22;3054;51.204;4.430;2022-08-21T11:38:04;36.43;28.69
6052;DHT22;3054;51.204;4.430;2022-08-21T11:40:44;35.05;30.51
6052;DHT22;3054;51.204;4.430;2022-08-21T11:43:21;34.81;31.41
6052;DHT22;3054;51.204;4.430;2022-08-21T11:45:52;35.69;30.30
6052;DHT22;3054;51.204;4.430;2022-08-21T11:48:32;37.23;29.36
6052;DHT22;3054;51.204;4.430;2022-08-21T11:51:04;37.06;27.94
6052;DHT22;3054;51.204;4.430;2022-08-21T11:53:37;39.92;26.81
6052;DHT22;3054;51.204;4.430;2022-08-21T11:56:11;38.45;26.47
6052;DHT22;3054;51.204;4.430;2022-08-21T11:58:45;39.19;25.22
6052;DHT22;3054;51.204;4.430;2022-08-21T12:01:17;40.61;24.55
6052;DHT22;3054;51.204;4.430;2022-08-21T12:03:54;38.85;25.96
6052;DHT22;3054;51.204;4.430;2022-08-21T12:06:29;37.32;27.65
6052;DHT22;3054;51.204;4.430;2022-08-21T12:08:59;36.63;28.69
6052;DHT22;3054;51.204;4.430;2022-08-21T12:11:27;35.99;29.49
6052;DHT22;3054;51.204;4.430;2022-08-21T12:13:57;35.52;30.11
6052;DHT22;3054;51.204;4.430;2022-08-21T12:16:32;35.19;30.51
6052;DHT22;3054;51.204;4.430;2022-08-21T12:19:04;35.03;30.76
6052;DHT22;3054;51.204;4.430;2022-08-21T12:21:32;34.59;31.22
6052;DHT22;3054;51.204;4.430;2022-08-21T12:24:03;34.18;31.80
6052;DHT22;3054;51.204;4.430;2022-08-21T12:26:35;33.77;32.26
6052;DHT22;3054;51.204;4.430;2022-08-21T12:29:14;33.40;32.76
6052;DHT22;3054;51.204;4.430;2022-08-21T12:31:50;33.15;32.98
6052;DHT22;3054;51.204;4.430;2022-08-21T12:34:20;32.97;33.23
6052;DHT22;3054;51.204;4.430;2022-08-21T12:36:54;32.77;33.51
6052;DHT22;3054;51.204;4.430;2022-08-21T12:39:24;32.59;33.71
6052;DHT22;3054;51.204;4.430;2022-08-21T12:41:58;32.38;33.91
6052;DHT22;3054;51.204;4.430;2022-08-21T12:44:31;32.13;34.27
6052;DHT22;3054;51.204;4.430;2022-08-21T12:47:04;31.95;34.60
6052;DHT22;3054;51.204;4.430;2022-08-21T12:49:34;31.72;34.86
6052;DHT22;3054;51.204;4.430;2022-08-21T12:52:05;31.45;35.26
6052;DHT22;3054;51.204;4.430;2022-08-21T12:54:38;31.12;35.77
6052;DHT22;3054;51.204;4.430;2022-08-21T12:57:08;30.82;36.14
6052;DHT22;3054;51.204;4.430;2022-08-21T12:59:41;30.63;36.24
6052;DHT22;3054;51.204;4.430;2022-08-21T13:02:15;30.55;36.40
6052;DHT22;3054;51.204;4.430;2022-08-21T13:04:44;30.51;36.51
6052;DHT22;3054;51.204;4.430;2022-08-21T13:07:14;30.34;36.88
6052;DHT22;3054;51.204;4.430;2022-08-21T13:09:46;30.19;37.24
6052;DHT22;3054;51.204;4.430;2022-08-21T13:12:17;30.09;37.50
6052;DHT22;3054;51.204;4.430;2022-08-21T13:14:46;29.98;37.69
6052;DHT22;3054;51.204;4.430;2022-08-21T13:17:17;29.88;37.94
6052;DHT22;3054;51.204;4.430;2022-08-21T13:19:53;29.78;38.20
6052;DHT22;3054;51.204;4.430;2022-08-21T13:22:20;29.68;38.40
6052;DHT22;3054;51.204;4.430;2022-08-21T13:24:48;29.59;38.56
6052;DHT22;3054;51.204;4.430;2022-08-21T13:27:20;29.50;38.74
6052;DHT22;3054;51.204;4.430;2022-08-21T13:29:47;29.47;38.74
6052;DHT22;3054;51.204;4.430;2022-08-21T13:32:21;29.48;38.81
6052;DHT22;3054;51.204;4.430;2022-08-21T13:34:49;29.41;38.91
6052;DHT22;3054;51.204;4.430;2022-08-21T13:37:17;29.32;39.04
6052;DHT22;3054;51.204;4.430;2022-08-21T13:39:49;29.32;39.11
6052;DHT22;3054;51.204;4.430;2022-08-21T13:42:18;29.53;38.75
6052;DHT22;3054;51.204;4.430;2022-08-21T13:44:47;29.79;38.30
6052;DHT22;3054;51.204;4.430;2022-08-21T13:47:16;30.01;37.95
6052;DHT22;3054;51.204;4.430;2022-08-21T13:49:45;29.92;37.67
6052;DHT22;3054;51.204;4.430;2022-08-21T13:52:17;29.68;37.78
6052;DHT22;3054;51.204;4.430;2022-08-21T13:54:53;29.59;37.75
6052;DHT22;3054;51.204;4.430;2022-08-21T13:57:28;29.50;37.79
6052;DHT22;3054;51.204;4.430;2022-08-21T14:00:11;29.37;37.84
6052;DHT22;3054;51.204;4.430;2022-08-21T14:02:40;29.22;38.12
6052;DHT22;3054;51.204;4.430;2022-08-21T14:05:16;29.22;38.26
6052;DHT22;3054;51.204;4.430;2022-08-21T14:07:46;29.22;38.40
6052;DHT22;3054;51.204;4.430;2022-08-21T14:10:16;29.15;38.76
6052;DHT22;3054;51.204;4.430;2022-08-21T14:12:47;29.12;39.04
6052;DHT22;3054;51.204;4.430;2022-08-21T14:15:17;29.11;39.08
6052;DHT22;3054;51.204;4.430;2022-08-21T14:17:45;29.03;39.30
6052;DHT22;3054;51.204;4.430;2022-08-21T14:20:26;29.03;39.36
6052;DHT22;3054;51.204;4.430;2022-08-21T14:22:53;29.09;39.37
6052;DHT22;3054;51.204;4.430;2022-08-21T14:25:28;29.17;39.37
6052;DHT22;3054;51.204;4.430;2022-08-21T14:28:02;29.27;39.30
6052;DHT22;3054;51.204;4.430;2022-08-21T14:30:31;29.36;39.18
6052;DHT22;3054;51.204;4.430;2022-08-21T14:33:00;29.41;39.20
6052;DHT22;3054;51.204;4.430;2022-08-21T14:35:27;29.37;39.25
6052;DHT22;3054;51.204;4.430;2022-08-21T14:37:54;29.33;39.41
6052;DHT22;3054;51.204;4.430;2022-08-21T14:40:23;29.27;39.59
6052;DHT22;3054;51.204;4.430;2022-08-21T14:42:51;29.28;39.48
6052;DHT22;3054;51.204;4.430;2022-08-21T14:45:28;29.36;39.23
6052;DHT22;3054;51.204;4.430;2022-08-21T14:47:55;29.29;39.33
6052;DHT22;3054;51.204;4.430;2022-08-21T14:50:22;29.23;39.41
6052;DHT22;3054;51.204;4.430;2022-08-21T14:52:49;29.16;39.62
6052;DHT22;3054;51.204;4.430;2022-08-21T14:55:17;29.04;39.86
6052;DHT22;3054;51.204;4.430;2022-08-21T14:57:46;28.95;40.02
6052;DHT22;3054;51.204;4.430;2022-08-21T15:00:15;28.90;40.17
6052;DHT22;3054;51.204;4.430;2022-08-21T15:02:45;28.84;40.39
6052;DHT22;3054;51.204;4.430;2022-08-21T15:05:12;28.84;40.59
6052;DHT22;3054;51.204;4.430;2022-08-21T15:07:39;28.78;40.75
6052;DHT22;3054;51.204;4.430;2022-08-21T15:10:07;28.75;40.79
6052;DHT22;3054;51.204;4.430;2022-08-21T15:12:35;28.73;40.89
6052;DHT22;3054;51.204;4.430;2022-08-21T15:15:02;28.73;40.89
6052;DHT22;3054;51.204;4.430;2022-08-21T15:17:31;28.76;40.90
6052;DHT22;3054;51.204;4.430;2022-08-21T15:19:59;28.74;41.12
6052;DHT22;3054;51.204;4.430;2022-08-21T15:22:26;28.71;41.07
6052;DHT22;3054;51.204;4.430;2022-08-21T15:24:52;28.68;40.94
6052;DHT22;3054;51.204;4.430;2022-08-21T15:27:19;28.70;41.00
6052;DHT22;3054;51.204;4.430;2022-08-21T15:29:46;28.69;41.05
6052;DHT22;3054;51.204;4.430;2022-08-21T15:32:18;28.63;41.23
6052;DHT22;3054;51.204;4.430;2022-08-21T15:34:47;28.63;41.26
6052;DHT22;3054;51.204;4.430;2022-08-21T15:37:17;28.59;41.25
6052;DHT22;3054;51.204;4.430;2022-08-21T15:39:44;28.53;41.29
6052;DHT22;3054;51.204;4.430;2022-08-21T15:42:11;28.52;41.42
6052;DHT22;3054;51.204;4.430;2022-08-21T15:44:40;28.48;41.51
6052;DHT22;3054;51.204;4.430;2022-08-21T15:47:11;28.43;41.56
6052;DHT22;3054;51.204;4.430;2022-08-21T15:49:39;28.38;41.65
6052;DHT22;3054;51.204;4.430;2022-08-21T15:52:08;28.31;41.71
6052;DHT22;3054;51.204;4.430;2022-08-21T15:54:36;28.29;41.56
6052;DHT22;3054;51.204;4.430;2022-08-21T15:57:03;28.26;41.55
6052;DHT22;3054;51.204;4.430;2022-08-21T15:59:38;28.21;41.60
6052;DHT22;3054;51.204;4.430;2022-08-21T16:02:07;28.18;41.76
6052;DHT22;3054;51.204;4.430;2022-08-21T16:04:38;28.16;41.93
6052;DHT22;3054;51.204;4.430;2022-08-21T16:07:05;28.13;42.04
6052;DHT22;3054;51.204;4.430;2022-08-21T16:09:32;28.08;42.10
6052;DHT22;3054;51.204;4.430;2022-08-21T16:12:01;28.02;42.28
6052;DHT22;3054;51.204;4.430;2022-08-21T16:14:28;27.98;42.42
6052;DHT22;3054;51.204;4.430;2022-08-21T16:16:56;27.95;42.61
6052;DHT22;3054;51.204;4.430;2022-08-21T16:19:23;27.88;42.81
6052;DHT22;3054;51.204;4.430;2022-08-21T16:21:50;27.80;43.01
6052;DHT22;3054;51.204;4.430;2022-08-21T16:24:17;27.80;43.07